Time;durP1;ratioP1;P1;durP2;ratioP2;P2;SDS_P1;SDS_P2;PMS_P1;PMS_P2;Temp;Humidity;BMP_temperature;BMP_pressure;BME280_temperature;BME280_humidity;BME280_pressure;Samples;Min_cycle;Max_cycle;Signal;HPM_P1;HPM_P2
2022/11/02 00:02:18;;;;;;;7.43;1.10;;;12.20;99.90;;;;;;5144704;27;20430;-47
2022/11/02 00:04:43;;;;;;;8.18;1.10;;;12.10;99.90;;;;;;5129680;27;20107;-49
2022/11/02 00:07:09;;;;;;;9.00;1.40;;;12.20;99.90;;;;;;5144730;27;20116;-47
2022/11/02 00:09:34;;;;;;;5.75;1.30;;;12.10;99.90;;;;;;5129448;27;20083;-49
2022/11/02 00:12:00;;;;;;;6.60;1.27;;;12.10;99.90;;;;;;5136232;27;20035;-46
2022/11/02 00:14:28;;;;;;;6.93;1.50;;;12.20;99.90;;;;;;5137970;27;20471;-48
2022/11/02 00:16:54;;;;;;;8.13;1.60;;;12.00;99.90;;;;;;5141590;27;20113;-51
2022/11/02 00:19:20;;;;;;;8.55;1.60;;;12.10;99.90;;;;;;5137079;27;20114;-50
2022/11/02 00:21:46;;;;;;;8.95;1.50;;;12.20;99.90;;;;;;5139259;27;20067;-50
2022/11/02 00:24:12;;;;;;;7.68;1.48;;;12.10;99.90;;;;;;5134915;27;20039;-49
2022/11/02 00:26:37;;;;;;;10.10;2.03;;;12.20;99.90;;;;;;5146578;27;20103;-49
2022/11/02 00:29:04;;;;;;;9.80;1.63;;;12.20;99.90;;;;;;5137258;27;20039;-46
2022/11/02 00:31:30;;;;;;;12.73;2.08;;;12.20;99.90;;;;;;5144009;27;20038;-48
2022/11/02 00:33:56;;;;;;;9.82;2.28;;;12.20;99.90;;;;;;5146663;27;20033;-48
2022/11/02 00:36:23;;;;;;;7.90;1.90;;;12.30;99.90;;;;;;5135848;27;20388;-49
2022/11/02 00:38:50;;;;;;;10.13;2.08;;;12.20;99.90;;;;;;5145772;27;20051;-48
2022/11/02 00:41:17;;;;;;;13.20;2.22;;;12.10;99.90;;;;;;5145294;27;20039;-47
2022/11/02 00:43:43;;;;;;;17.77;2.50;;;12.20;99.90;;;;;;5137627;27;20143;-50
2022/11/02 00:46:08;;;;;;;9.60;2.05;;;12.20;99.90;;;;;;5120865;27;20039;-51
2022/11/02 00:48:35;;;;;;;6.68;1.45;;;12.00;99.90;;;;;;5151409;27;20049;-51
2022/11/02 00:51:00;;;;;;;5.38;1.25;;;12.00;99.90;;;;;;5119002;27;20035;-50
2022/11/02 00:53:27;;;;;;;9.38;1.45;;;11.80;99.90;;;;;;5147644;27;20057;-48
2022/11/02 00:55:52;;;;;;;9.93;1.80;;;12.00;99.90;;;;;;5140656;27;20049;-49
2022/11/02 00:58:19;;;;;;;8.13;1.30;;;11.70;99.90;;;;;;5106213;27;20039;-46
2022/11/02 01:00:44;;;;;;;9.13;2.00;;;11.90;99.90;;;;;;5145474;27;20445;-48
2022/11/02 01:03:10;;;;;;;8.10;2.17;;;11.80;99.90;;;;;;5141426;27;20039;-46
2022/11/02 01:05:36;;;;;;;9.70;1.90;;;11.70;99.90;;;;;;5141988;27;20035;-47
2022/11/02 01:08:02;;;;;;;8.75;2.38;;;11.90;99.90;;;;;;5146462;27;20392;-49
2022/11/02 01:10:28;;;;;;;8.77;2.30;;;11.80;99.90;;;;;;5142272;27;20035;-48
2022/11/02 01:12:54;;;;;;;12.23;2.15;;;11.90;99.90;;;;;;5141583;27;20033;-47
2022/11/02 01:15:19;;;;;;;10.57;1.95;;;11.90;99.90;;;;;;5151227;27;20564;-45
2022/11/02 01:17:45;;;;;;;11.32;2.08;;;11.70;99.90;;;;;;5143745;27;20038;-48
2022/11/02 01:20:11;;;;;;;12.05;2.30;;;11.70;99.90;;;;;;5142831;27;20026;-47
2022/11/02 01:22:37;;;;;;;16.25;2.50;;;11.90;99.90;;;;;;5147030;27;20129;-47
2022/11/02 01:25:03;;;;;;;12.63;2.50;;;11.80;99.90;;;;;;5128906;27;20038;-47
2022/11/02 01:27:29;;;;;;;11.82;2.17;;;11.90;99.90;;;;;;5136029;27;20047;-47
2022/11/02 01:29:55;;;;;;;8.68;2.25;;;11.90;99.90;;;;;;5137082;27;20491;-49
2022/11/02 01:32:20;;;;;;;9.52;1.95;;;11.90;99.90;;;;;;5137617;27;20047;-47
2022/11/02 01:34:46;;;;;;;9.48;2.20;;;11.90;99.90;;;;;;5139286;27;20031;-51
2022/11/02 01:37:12;;;;;;;9.27;2.08;;;11.90;99.90;;;;;;5124683;27;20027;-47
2022/11/02 01:39:37;;;;;;;7.95;2.17;;;12.00;99.90;;;;;;5124357;27;20039;-48
2022/11/02 01:42:15;;;;;;;10.18;2.10;;;12.00;99.90;;;;;;5134790;27;20414;-51
2022/11/02 01:44:42;;;;;;;13.95;2.47;;;11.90;99.90;;;;;;5134804;27;20077;-47
2022/11/02 01:47:17;;;;;;;8.68;2.45;;;12.10;99.90;;;;;;5126208;27;20045;-48
2022/11/02 01:49:46;;;;;;;11.07;2.70;;;12.00;99.90;;;;;;5135538;27;20105;-47
2022/11/02 01:52:19;;;;;;;12.30;2.58;;;12.00;99.90;;;;;;5105626;27;20050;-47
2022/11/02 01:54:52;;;;;;;10.20;2.43;;;12.00;99.90;;;;;;5148714;27;20066;-46
2022/11/02 01:57:20;;;;;;;10.70;2.40;;;12.10;99.90;;;;;;5138638;27;20080;-49
2022/11/02 02:00:01;;;;;;;10.73;2.33;;;12.00;99.90;;;;;;5144506;27;20039;-49
2022/11/02 02:02:27;;;;;;;12.18;2.10;;;12.00;99.90;;;;;;5139361;27;20031;-47
2022/11/02 02:05:02;;;;;;;4.10;1.00;;;11.90;99.90;;;;;;5118695;27;20046;-51
2022/11/02 02:07:30;;;;;;;4.93;1.25;;;11.90;99.90;;;;;;5134437;27;20046;-49
2022/11/02 02:09:55;;;;;;;3.15;0.90;;;11.80;99.90;;;;;;5136120;27;20482;-51
2022/11/02 02:12:22;;;;;;;4.90;1.08;;;11.60;99.90;;;;;;5137358;27;20038;-47
2022/11/02 02:14:48;;;;;;;3.15;0.60;;;11.50;99.90;;;;;;5139724;27;20031;-50
2022/11/02 02:17:30;;;;;;;3.35;0.88;;;11.30;99.90;;;;;;5142958;27;20064;-47
2022/11/02 02:20:06;;;;;;;3.63;0.60;;;11.30;99.90;;;;;;5138878;27;20067;-50
2022/11/02 02:22:50;;;;;;;4.57;0.80;;;11.30;99.90;;;;;;5141918;27;20034;-49
2022/11/02 02:25:54;;;;;;;3.90;0.70;;;11.20;99.90;;;;;;5139797;27;20027;-47
2022/11/02 02:28:29;;;;;;;7.82;1.20;;;11.10;99.90;;;;;;5095551;27;20043;-46
2022/11/02 02:31:11;;;;;;;6.63;1.45;;;11.10;99.90;;;;;;5146650;27;20141;-49
2022/11/02 02:33:52;;;;;;;7.13;1.95;;;11.30;99.90;;;;;;5129865;27;20039;-49
2022/11/02 02:36:29;;;;;;;8.52;1.90;;;11.30;99.90;;;;;;5136234;27;20035;-47
2022/11/02 02:39:03;;;;;;;9.70;1.42;;;11.30;99.90;;;;;;5124177;27;20034;-47
2022/11/02 02:41:43;;;;;;;11.70;1.67;;;11.40;99.90;;;;;;5139059;27;20069;-49
2022/11/02 02:44:21;;;;;;;8.07;1.20;;;11.50;99.90;;;;;;5139264;27;20094;-48
2022/11/02 02:46:55;;;;;;;6.50;1.20;;;11.50;99.90;;;;;;5124949;27;20042;-48
2022/11/02 02:49:25;;;;;;;;;;;11.50;99.90;;;;;;5145134;27;20057;-46
2022/11/02 02:51:51;;;;;;;5.45;1.00;;;11.30;99.90;;;;;;5134838;27;20358;-49
2022/11/02 02:54:34;;;;;;;6.20;1.13;;;11.30;99.90;;;;;;5126961;27;20401;-47
2022/11/02 02:57:06;;;;;;;5.65;1.00;;;11.20;99.90;;;;;;5139651;27;20059;-49
2022/11/02 02:59:45;;;;;;;5.45;1.05;;;11.10;99.90;;;;;;5147776;27;20035;-47
2022/11/02 03:02:22;;;;;;;4.65;0.88;;;11.00;99.90;;;;;;5140855;27;20042;-47
2022/11/02 03:04:47;;;;;;;6.22;0.90;;;10.90;99.90;;;;;;5135066;27;20057;-48
2022/11/02 03:07:19;;;;;;;4.80;1.15;;;10.90;99.90;;;;;;5137172;27;20034;-49
2022/11/02 03:09:55;;;;;;;6.82;0.90;;;10.90;99.90;;;;;;5118874;27;20039;-52
2022/11/02 03:12:26;;;;;;;5.35;0.80;;;10.80;99.90;;;;;;5140904;27;20027;-48
2022/11/02 03:15:09;;;;;;;4.90;0.70;;;10.80;99.90;;;;;;5138056;27;20043;-45
2022/11/02 03:18:06;;;;;;;6.18;0.90;;;10.70;99.90;;;;;;5119484;27;20046;-49
2022/11/02 03:21:17;;;;;;;7.05;0.95;;;10.60;99.90;;;;;;5132433;27;20031;-46
2022/11/02 03:23:47;;;;;;;8.48;1.02;;;10.60;99.90;;;;;;5054057;28;20115;-47
2022/11/02 03:26:30;;;;;;;7.35;1.10;;;10.60;99.90;;;;;;5049129;28;20369;-49
2022/11/02 03:29:04;;;;;;;11.18;1.02;;;10.60;99.90;;;;;;5105101;27;20067;-53
2022/11/02 03:31:39;;;;;;;7.57;1.10;;;10.60;99.90;;;;;;5146703;27;20051;-47
2022/11/02 03:34:38;;;;;;;6.38;0.95;;;10.80;99.90;;;;;;5131107;27;20035;-47
2022/11/02 03:37:26;;;;;;;7.38;1.17;;;10.70;99.90;;;;;;5143755;27;20043;-48
2022/11/02 03:39:57;;;;;;;4.95;1.10;;;10.60;99.90;;;;;;5127118;27;20473;-51
2022/11/02 03:42:26;;;;;;;7.70;0.95;;;10.70;99.90;;;;;;5123539;27;20038;-47
2022/11/02 03:44:58;;;;;;;6.25;1.13;;;10.70;99.90;;;;;;5125000;27;20035;-48
2022/11/02 03:47:25;;;;;;;7.25;1.25;;;10.70;99.90;;;;;;5136704;27;20034;-48
2022/11/02 03:49:54;;;;;;;7.63;1.27;;;10.70;99.90;;;;;;5137243;27;20047;-46
2022/11/02 03:52:26;;;;;;;8.07;1.25;;;10.70;99.90;;;;;;5149580;27;20560;-47
2022/11/02 03:55:12;;;;;;;6.38;1.00;;;10.80;99.90;;;;;;5141550;27;20041;-46
2022/11/02 03:57:46;;;;;;;7.45;1.48;;;10.70;99.90;;;;;;5141830;27;20070;-46
2022/11/02 04:00:15;;;;;;;6.53;1.10;;;10.70;99.90;;;;;;5145197;27;20134;-48
2022/11/02 04:02:46;;;;;;;9.27;1.52;;;10.80;99.90;;;;;;5136446;27;20035;-47
2022/11/02 04:05:11;;;;;;;8.85;1.45;;;10.70;99.90;;;;;;5149208;27;20046;-46
2022/11/02 04:10:24;;;;;;;8.20;1.42;;;10.80;99.90;;;;;;5130207;27;20076;-48
2022/11/02 04:15:34;;;;;;;;;;;10.70;99.90;;;;;;5141168;27;20473;-47
2022/11/02 04:20:49;;;;;;;6.32;1.17;;;10.70;99.90;;;;;;5152969;27;20099;-49
2022/11/02 04:25:59;;;;;;;8.40;1.45;;;10.80;99.90;;;;;;5141481;27;20046;-47
2022/11/02 04:28:24;;;;;;;11.73;1.95;;;10.90;99.90;;;;;;5139492;27;20039;-47
2022/11/02 04:30:50;;;;;;;8.63;1.45;;;10.80;99.90;;;;;;5138631;27;20058;-50
2022/11/02 04:33:34;;;;;;;12.30;1.65;;;10.90;99.90;;;;;;5140690;27;20038;-48
2022/11/02 04:36:05;;;;;;;10.80;2.00;;;10.90;99.90;;;;;;5140683;27;20039;-47
2022/11/02 04:38:40;;;;;;;9.63;1.60;;;10.90;99.90;;;;;;5141460;27;20045;-49
2022/11/02 04:43:56;;;;;;;9.00;1.85;;;10.90;99.90;;;;;;5136643;27;20045;-49
2022/11/02 04:46:24;;;;;;;13.45;2.10;;;11.00;99.90;;;;;;5141778;27;20034;-49
2022/11/02 04:48:50;;;;;;;12.35;1.90;;;11.00;99.90;;;;;;5134435;27;20147;-47
2022/11/02 04:51:16;;;;;;;11.48;1.90;;;11.00;99.90;;;;;;5144084;27;20110;-49
2022/11/02 04:53:42;;;;;;;8.95;1.90;;;11.00;99.90;;;;;;5123742;27;20043;-49
2022/11/02 04:56:08;;;;;;;13.75;2.10;;;11.00;99.90;;;;;;5140254;27;20447;-47
2022/11/02 04:58:34;;;;;;;9.25;2.10;;;11.10;99.90;;;;;;5139955;27;20073;-52
2022/11/02 05:01:14;;;;;;;9.10;2.25;;;11.00;99.90;;;;;;5147443;27;20038;-49
2022/11/02 05:03:40;;;;;;;13.75;1.85;;;11.00;99.90;;;;;;5143178;27;20035;-48
2022/11/02 05:06:08;;;;;;;9.40;1.50;;;11.00;99.90;;;;;;5148580;27;20474;-47
2022/11/02 05:08:35;;;;;;;13.65;2.03;;;11.10;99.90;;;;;;5123121;27;20602;-48
2022/11/02 05:11:00;;;;;;;12.75;2.13;;;11.00;99.90;;;;;;5144674;27;20058;-47
2022/11/02 05:13:26;;;;;;;12.25;2.25;;;11.00;99.90;;;;;;5143268;27;20070;-53
2022/11/02 05:15:56;;;;;;;20.85;2.63;;;10.90;99.90;;;;;;5118418;27;20838;-47
2022/11/02 05:18:22;;;;;;;18.30;2.40;;;10.90;99.90;;;;;;5139381;27;20031;-49
2022/11/02 05:20:52;;;;;;;12.02;2.53;;;10.80;99.90;;;;;;5140908;27;20067;-49
2022/11/02 05:23:19;;;;;;;13.93;2.65;;;10.70;99.90;;;;;;5140767;27;20039;-46
2022/11/02 05:25:54;;;;;;;16.38;2.45;;;10.70;99.90;;;;;;5138903;27;20035;-49
2022/11/02 05:28:20;;;;;;;14.90;3.40;;;10.70;99.90;;;;;;5140459;27;20134;-50
2022/11/02 05:30:46;;;;;;;20.08;3.17;;;10.90;99.90;;;;;;5145422;27;20130;-47
2022/11/02 05:33:12;;;;;;;11.13;2.58;;;10.80;99.90;;;;;;5140768;27;20050;-47
2022/11/02 05:35:37;;;;;;;15.68;2.70;;;10.90;99.90;;;;;;5144264;27;20034;-47
2022/11/02 05:38:03;;;;;;;13.40;2.78;;;10.80;99.90;;;;;;5143994;27;20045;-47
2022/11/02 05:40:29;;;;;;;16.58;2.80;;;10.60;99.90;;;;;;5146365;27;20088;-49
2022/11/02 05:42:59;;;;;;;14.20;2.63;;;10.60;99.90;;;;;;5147108;27;20090;-48
2022/11/02 05:45:24;;;;;;;15.27;2.90;;;10.70;99.90;;;;;;5122099;27;20071;-47
2022/11/02 05:47:50;;;;;;;14.57;2.78;;;10.60;99.90;;;;;;5140306;27;20078;-47
2022/11/02 05:50:16;;;;;;;15.57;2.88;;;10.60;99.90;;;;;;5140430;27;20046;-51
2022/11/02 05:52:41;;;;;;;14.23;2.85;;;10.50;99.90;;;;;;5138619;27;20396;-48
2022/11/02 05:55:07;;;;;;;16.80;2.95;;;10.80;99.90;;;;;;5141468;27;20034;-51
2022/11/02 05:57:33;;;;;;;14.55;2.67;;;10.70;99.90;;;;;;5136244;27;20035;-52
2022/11/02 05:59:59;;;;;;;14.90;2.75;;;10.70;99.90;;;;;;5140232;27;20041;-52
2022/11/02 06:02:24;;;;;;;14.48;3.03;;;10.60;99.90;;;;;;5145571;27;20034;-50
2022/11/02 06:04:50;;;;;;;18.02;2.70;;;10.70;99.90;;;;;;5148527;27;20475;-52
2022/11/02 06:07:15;;;;;;;15.60;2.47;;;10.80;99.90;;;;;;5153261;27;20477;-50
2022/11/02 06:09:41;;;;;;;12.02;2.38;;;10.80;99.90;;;;;;5144049;27;20038;-50
2022/11/02 06:12:07;;;;;;;13.10;2.30;;;10.80;99.90;;;;;;5147226;27;20049;-51
2022/11/02 06:14:32;;;;;;;18.20;3.88;;;10.80;99.90;;;;;;5143185;27;20031;-50
2022/11/02 06:16:58;;;;;;;14.57;2.70;;;10.70;99.90;;;;;;5136294;27;20067;-49
2022/11/02 06:19:24;;;;;;;15.77;2.63;;;10.80;99.90;;;;;;5139765;27;20035;-46
2022/11/02 06:21:49;;;;;;;15.15;2.47;;;10.70;99.90;;;;;;5148914;27;20087;-47
2022/11/02 06:24:15;;;;;;;18.75;2.53;;;10.50;99.90;;;;;;5135837;27;20041;-47
2022/11/02 06:26:40;;;;;;;14.48;2.80;;;10.50;99.90;;;;;;5140381;27;20131;-47
2022/11/02 06:29:06;;;;;;;19.02;3.33;;;10.40;99.90;;;;;;5104612;27;20118;-48
2022/11/02 06:31:32;;;;;;;14.70;2.65;;;10.60;99.90;;;;;;5137188;27;20463;-48
2022/11/02 06:33:57;;;;;;;15.32;2.38;;;10.50;99.90;;;;;;5143998;27;20111;-46
2022/11/02 06:36:23;;;;;;;16.38;2.67;;;10.60;99.90;;;;;;5146518;27;20037;-48
2022/11/02 06:38:50;;;;;;;10.50;2.58;;;10.50;99.90;;;;;;5144061;27;20077;-50
2022/11/02 06:41:15;;;;;;;12.13;2.22;;;10.50;99.90;;;;;;5142504;27;20409;-52
2022/11/02 06:43:41;;;;;;;21.45;2.60;;;10.40;99.90;;;;;;5139520;27;20034;-48
2022/11/02 06:46:07;;;;;;;17.45;2.42;;;10.50;99.90;;;;;;5142897;27;20091;-47
2022/11/02 06:48:33;;;;;;;13.00;2.42;;;10.40;99.90;;;;;;5139433;27;20042;-48
2022/11/02 06:50:59;;;;;;;13.88;3.40;;;10.30;99.90;;;;;;5144688;27;20070;-46
2022/11/02 06:53:25;;;;;;;13.15;2.75;;;10.60;99.90;;;;;;5144875;27;20062;-48
2022/11/02 06:55:55;;;;;;;11.32;1.90;;;10.50;99.90;;;;;;5140192;27;20042;-47
2022/11/02 06:58:22;;;;;;;16.38;2.85;;;10.70;99.90;;;;;;5144975;27;20122;-47
2022/11/02 07:00:48;;;;;;;16.38;3.22;;;10.50;99.90;;;;;;5148989;27;20042;-48
2022/11/02 07:03:13;;;;;;;14.23;2.90;;;10.60;99.90;;;;;;5136061;27;20051;-48
2022/11/02 07:05:39;;;;;;;11.02;2.50;;;10.80;99.90;;;;;;5138423;27;20038;-48
2022/11/02 07:08:05;;;;;;;14.70;2.78;;;10.70;99.90;;;;;;5138785;27;20031;-48
2022/11/02 07:10:31;;;;;;;20.48;2.97;;;10.80;99.90;;;;;;5144350;27;20940;-48
2022/11/02 07:12:57;;;;;;;14.88;2.70;;;10.80;99.90;;;;;;5141137;27;20355;-47
2022/11/02 07:15:24;;;;;;;16.75;2.53;;;10.60;99.90;;;;;;5141307;27;20087;-47
2022/11/02 07:17:53;;;;;;;14.07;2.58;;;10.90;99.90;;;;;;5121996;27;20035;-48
2022/11/02 07:20:19;;;;;;;14.02;2.50;;;10.70;99.90;;;;;;5138466;27;20069;-50
2022/11/02 07:22:52;;;;;;;15.20;2.30;;;10.90;99.90;;;;;;5140269;27;20066;-48
2022/11/02 07:25:18;;;;;;;13.50;2.47;;;11.00;99.90;;;;;;5131502;27;20062;-47
2022/11/02 07:27:43;;;;;;;13.75;2.88;;;11.10;99.90;;;;;;5121376;27;20043;-48
2022/11/02 07:30:09;;;;;;;11.90;1.98;;;11.10;99.90;;;;;;5129320;27;20099;-47
2022/11/02 07:32:39;;;;;;;14.70;2.20;;;11.10;99.90;;;;;;5130278;27;20043;-48
2022/11/02 07:35:07;;;;;;;11.50;2.05;;;11.20;99.90;;;;;;5118838;27;20098;-48
2022/11/02 07:37:33;;;;;;;9.60;1.70;;;11.10;99.90;;;;;;5122226;27;20040;-47
2022/11/02 07:39:58;;;;;;;13.00;2.08;;;11.00;99.90;;;;;;5120317;27;20070;-48
2022/11/02 07:42:24;;;;;;;7.43;1.48;;;11.00;99.90;;;;;;5124406;27;20414;-50
2022/11/02 07:44:50;;;;;;;13.90;1.88;;;11.20;99.90;;;;;;5120478;27;20115;-48
2022/11/02 07:47:15;;;;;;;14.85;1.70;;;11.00;99.90;;;;;;5122851;27;20414;-47
2022/11/02 07:49:41;;;;;;;11.93;1.90;;;11.10;99.90;;;;;;5119813;27;20062;-48
2022/11/02 07:52:06;;;;;;;12.77;2.20;;;11.10;99.90;;;;;;5124371;27;20030;-51
2022/11/02 07:54:32;;;;;;;13.48;2.35;;;11.00;99.90;;;;;;5109400;27;20111;-47
2022/11/02 07:56:58;;;;;;;15.00;2.38;;;11.10;99.90;;;;;;5131635;27;20039;-48
2022/11/02 07:59:24;;;;;;;10.43;1.95;;;11.00;99.90;;;;;;5131630;27;20417;-51
2022/11/02 08:01:49;;;;;;;15.02;1.98;;;11.10;99.90;;;;;;5128772;27;20046;-51
2022/11/02 08:04:15;;;;;;;14.55;2.08;;;11.20;99.90;;;;;;5129728;27;20038;-48
2022/11/02 08:06:41;;;;;;;13.70;2.00;;;11.20;99.90;;;;;;5129283;27;20038;-48
2022/11/02 08:09:06;;;;;;;15.75;1.77;;;11.00;99.90;;;;;;5109858;27;20094;-47
2022/11/02 08:11:32;;;;;;;11.98;1.42;;;11.10;99.90;;;;;;5126147;27;20159;-47
2022/11/02 08:13:58;;;;;;;10.20;1.30;;;11.20;99.90;;;;;;5130440;27;20035;-47
2022/11/02 08:16:23;;;;;;;10.68;1.85;;;11.10;99.90;;;;;;5129739;27;20035;-47
2022/11/02 08:18:49;;;;;;;8.20;1.73;;;11.30;99.90;;;;;;5127769;27;20057;-47
2022/11/02 08:21:15;;;;;;;15.15;2.00;;;11.30;99.90;;;;;;5126406;27;20042;-49
2022/11/02 08:23:40;;;;;;;11.38;1.42;;;11.20;99.90;;;;;;5127989;27;20114;-48
2022/11/02 08:26:06;;;;;;;10.45;1.40;;;11.30;99.90;;;;;;5129795;27;20046;-47
2022/11/02 08:28:34;;;;;;;10.68;1.80;;;11.20;99.90;;;;;;5110579;27;20119;-48
2022/11/02 08:31:00;;;;;;;14.25;1.45;;;11.20;99.90;;;;;;5127355;27;20055;-50
2022/11/02 08:33:26;;;;;;;9.50;1.48;;;11.40;99.90;;;;;;5129928;27;20031;-48
2022/11/02 08:35:52;;;;;;;10.63;1.77;;;11.30;99.90;;;;;;5126250;27;20023;-47
2022/11/02 08:38:21;;;;;;;14.68;1.40;;;11.40;99.90;;;;;;5130976;27;20046;-47
2022/11/02 08:40:47;;;;;;;8.70;1.48;;;11.40;99.90;;;;;;5128494;27;20055;-47
2022/11/02 08:43:14;;;;;;;6.90;1.27;;;11.50;99.90;;;;;;5129816;27;20529;-49
2022/11/02 08:45:43;;;;;;;11.27;1.63;;;11.60;99.90;;;;;;5128055;27;20031;-47
2022/11/02 08:48:09;;;;;;;7.80;1.80;;;11.60;99.90;;;;;;5125630;27;20054;-47
2022/11/02 08:50:34;;;;;;;8.32;1.38;;;11.70;99.90;;;;;;5127682;27;20032;-47
2022/11/02 08:53:00;;;;;;;14.23;1.92;;;11.70;99.90;;;;;;5126480;27;20045;-47
2022/11/02 08:55:26;;;;;;;9.25;1.42;;;11.90;99.90;;;;;;5129106;27;20471;-47
2022/11/02 08:57:55;;;;;;;8.43;1.60;;;11.90;99.90;;;;;;5126519;27;20600;-46
2022/11/02 09:00:23;;;;;;;7.68;1.20;;;11.90;99.90;;;;;;5127809;27;20051;-48
2022/11/02 09:02:57;;;;;;;6.90;1.40;;;12.00;99.90;;;;;;5128290;27;20087;-47
2022/11/02 09:05:23;;;;;;;8.25;1.55;;;12.10;99.90;;;;;;5126619;27;20054;-45
2022/11/02 09:07:57;;;;;;;12.48;1.90;;;12.10;99.90;;;;;;5129321;27;20039;-47
2022/11/02 09:10:23;;;;;;;8.13;1.08;;;12.20;99.90;;;;;;5125905;27;20039;-47
2022/11/02 09:12:49;;;;;;;8.95;1.50;;;12.10;99.90;;;;;;5108586;27;20042;-46
2022/11/02 09:15:15;;;;;;;15.27;1.67;;;12.20;99.90;;;;;;5126505;27;20114;-49
2022/11/02 09:17:41;;;;;;;11.57;1.45;;;12.30;99.90;;;;;;5126490;27;20047;-45
2022/11/02 09:20:07;;;;;;;10.02;1.67;;;12.40;99.90;;;;;;5128590;27;20031;-46
2022/11/02 09:22:32;;;;;;;11.15;1.67;;;12.40;99.90;;;;;;5129068;27;20031;-48
2022/11/02 09:24:58;;;;;;;14.88;1.75;;;12.50;99.90;;;;;;5127634;27;20027;-48
2022/11/02 09:27:24;;;;;;;11.88;1.67;;;12.50;99.90;;;;;;5129588;27;20038;-48
2022/11/02 09:29:49;;;;;;;9.00;1.88;;;12.50;99.90;;;;;;5131466;27;20069;-47
2022/11/02 09:32:15;;;;;;;8.75;1.40;;;12.60;99.90;;;;;;5126602;27;20079;-47
2022/11/02 09:34:41;;;;;;;8.25;1.42;;;12.70;99.90;;;;;;5130813;27;20047;-49
2022/11/02 09:37:06;;;;;;;14.25;2.47;;;12.80;99.90;;;;;;5132745;27;20031;-48
2022/11/02 09:39:32;;;;;;;11.70;1.73;;;12.90;99.90;;;;;;5145374;27;20046;-47
2022/11/02 09:42:11;;;;;;;10.20;1.70;;;12.90;99.90;;;;;;5142161;27;20030;-47
2022/11/02 09:44:53;;;;;;;17.13;2.47;;;13.00;99.90;;;;;;5135495;27;20113;-48
2022/11/02 09:47:20;;;;;;;10.43;1.60;;;13.00;99.90;;;;;;5136210;27;20038;-50
2022/11/02 09:49:46;;;;;;;14.75;1.95;;;12.90;99.90;;;;;;5114988;27;20046;-47
2022/11/02 09:52:22;;;;;;;10.65;2.10;;;12.90;99.90;;;;;;5122968;27;20039;-48
2022/11/02 09:54:52;;;;;;;8.98;1.88;;;12.80;99.90;;;;;;5139052;27;20047;-47
2022/11/02 09:57:30;;;;;;;9.55;1.55;;;12.80;99.90;;;;;;5116962;27;20050;-52
2022/11/02 09:59:56;;;;;;;8.43;1.48;;;12.80;99.90;;;;;;5138559;27;20032;-50
2022/11/02 10:03:04;;;;;;;11.07;2.05;;;12.80;99.90;;;;;;5135308;27;20035;-47
2022/11/02 10:05:57;;;;;;;7.60;1.30;;;12.90;99.90;;;;;;5141151;27;20767;-47
2022/11/02 10:08:28;;;;;;;10.32;1.80;;;13.10;99.90;;;;;;5113905;27;20095;-47
2022/11/02 10:11:13;;;;;;;13.27;1.60;;;13.30;99.90;;;;;;5137911;27;20033;-47
2022/11/02 10:13:48;;;;;;;15.65;2.70;;;13.50;99.90;;;;;;5144798;27;20027;-48
2022/11/02 10:16:21;;;;;;;10.57;1.65;;;13.50;99.90;;;;;;5141478;27;20098;-50
2022/11/02 10:18:49;;;;;;;9.57;1.60;;;13.50;99.90;;;;;;5141492;27;20035;-48
2022/11/02 10:21:35;;;;;;;10.35;2.00;;;13.60;99.90;;;;;;5142556;27;20109;-48
2022/11/02 10:24:37;;;;;;;7.65;1.42;;;13.90;99.90;;;;;;5143708;27;20122;-48
2022/11/02 10:27:20;;;;;;;10.73;1.67;;;14.10;99.90;;;;;;5135597;27;20039;-50
2022/11/02 10:30:05;;;;;;;10.68;1.95;;;14.10;99.90;;;;;;5124056;27;20047;-48
2022/11/02 10:32:33;;;;;;;10.23;1.73;;;14.10;99.90;;;;;;5139246;27;20071;-49
2022/11/02 10:35:02;;;;;;;9.60;1.98;;;14.30;99.90;;;;;;5135117;27;20141;-47
2022/11/02 10:37:43;;;;;;;8.13;1.63;;;14.40;99.90;;;;;;5140074;27;20110;-47
2022/11/02 10:40:48;;;;;;;9.65;2.25;;;14.20;99.90;;;;;;5135826;27;20042;-48
2022/11/02 10:43:50;;;;;;;8.18;1.75;;;14.10;99.90;;;;;;5132731;27;20042;-48
2022/11/02 10:46:31;;;;;;;13.05;2.00;;;13.90;99.90;;;;;;5143201;27;20065;-47
2022/11/02 10:49:20;;;;;;;10.45;2.30;;;13.90;99.90;;;;;;5139198;27;20043;-47
2022/11/02 10:51:46;;;;;;;14.02;2.35;;;14.00;99.90;;;;;;5104765;27;20069;-48
2022/11/02 10:54:14;;;;;;;13.00;2.28;;;14.10;99.90;;;;;;5144793;27;20148;-49
2022/11/02 10:56:42;;;;;;;12.10;2.20;;;14.30;99.90;;;;;;5139822;27;20039;-48
2022/11/02 10:59:19;;;;;;;11.02;2.15;;;14.40;99.90;;;;;;5141830;27;20051;-47
2022/11/02 11:01:57;;;;;;;11.73;1.88;;;14.50;99.90;;;;;;5140635;27;20038;-53
2022/11/02 11:04:28;;;;;;;12.27;2.25;;;14.40;99.90;;;;;;5141205;27;20526;-49
2022/11/02 11:06:58;;;;;;;14.35;2.40;;;14.20;99.90;;;;;;5148293;27;20377;-50
2022/11/02 11:09:32;;;;;;;9.88;1.90;;;14.40;99.90;;;;;;5135257;27;20091;-51
2022/11/02 11:12:06;;;;;;;11.45;2.22;;;14.30;99.90;;;;;;5138111;27;20413;-47
2022/11/02 11:14:51;;;;;;;12.98;1.70;;;14.20;99.90;;;;;;5139788;27;20500;-48
2022/11/02 11:17:26;;;;;;;8.70;1.52;;;14.40;99.90;;;;;;5119052;27;20066;-50
2022/11/02 11:19:54;;;;;;;9.60;1.60;;;14.60;99.90;;;;;;5132596;27;20111;-47
2022/11/02 11:22:34;;;;;;;9.05;2.00;;;15.00;99.90;;;;;;5137706;27;20066;-50
2022/11/02 11:25:11;;;;;;;8.77;1.60;;;15.10;99.90;;;;;;5138498;27;20035;-49
2022/11/02 11:27:48;;;;;;;9.15;1.50;;;14.90;99.90;;;;;;5138386;27;20130;-48
2022/11/02 11:30:29;;;;;;;8.63;1.48;;;14.70;99.90;;;;;;5131979;27;20039;-49
2022/11/02 11:32:57;;;;;;;11.00;1.48;;;14.80;99.90;;;;;;5129806;27;20039;-47
2022/11/02 11:35:29;;;;;;;8.27;1.48;;;15.00;99.90;;;;;;5133403;27;20446;-49
2022/11/02 11:38:00;;;;;;;9.60;1.45;;;15.10;99.90;;;;;;5135652;27;20439;-51
2022/11/02 11:40:30;;;;;;;7.18;1.50;;;15.20;99.90;;;;;;5128034;27;20039;-48
2022/11/02 11:42:56;;;;;;;10.40;1.60;;;15.00;99.90;;;;;;5110351;28;20042;-46
2022/11/02 11:45:26;;;;;;;7.20;1.42;;;15.00;99.90;;;;;;5134161;27;20038;-50
2022/11/02 11:48:02;;;;;;;8.20;1.80;;;15.20;99.90;;;;;;5132033;27;20034;-50
2022/11/02 11:50:28;;;;;;;6.78;1.52;;;15.40;99.90;;;;;;5131133;27;20035;-50
2022/11/02 11:53:23;;;;;;;12.68;1.80;;;15.20;99.90;;;;;;5134673;27;20206;-47
2022/11/02 11:55:50;;;;;;;;;;;15.10;99.90;;;;;;5121684;27;20145;-48
2022/11/02 11:58:16;;;;;;;6.40;1.30;;;14.90;99.90;;;;;;5138635;27;19942;-51
2022/11/02 12:00:42;;;;;;;7.07;1.40;;;14.90;99.90;;;;;;5128597;27;20394;-47
2022/11/02 12:03:10;;;;;;;8.35;1.83;;;15.10;99.90;;;;;;5132104;27;20054;-51
2022/11/02 12:05:54;;;;;;;7.68;1.80;;;15.30;99.90;;;;;;5128505;27;20054;-46
2022/11/02 12:08:57;;;;;;;6.22;1.40;;;15.50;99.90;;;;;;5127701;27;20035;-49
2022/11/02 12:11:33;;;;;;;6.18;1.30;;;15.80;99.90;;;;;;5125017;27;20043;-47
2022/11/02 12:14:09;;;;;;;6.05;1.42;;;16.10;99.90;;;;;;5129515;27;20395;-49
2022/11/02 12:16:47;;;;;;;7.22;1.60;;;16.20;99.90;;;;;;5133929;27;20055;-49
2022/11/02 12:19:31;;;;;;;10.30;1.67;;;16.50;99.90;;;;;;5125616;27;20038;-47
2022/11/02 12:21:57;;;;;;;;;;;16.50;99.90;;;;;;5134630;27;20058;-48
2022/11/02 12:24:31;;;;;;;6.72;1.38;;;16.10;99.90;;;;;;5134314;27;19919;-47
2022/11/02 12:27:22;;;;;;;9.40;1.80;;;16.20;99.90;;;;;;5133276;27;20034;-49
2022/11/02 12:30:15;;;;;;;7.25;1.50;;;16.00;99.90;;;;;;5130223;27;20130;-47
2022/11/02 12:32:41;;;;;;;7.68;1.80;;;16.20;99.90;;;;;;5135103;27;20134;-47
2022/11/02 12:35:35;;;;;;;8.20;1.42;;;16.50;99.90;;;;;;5140368;27;20125;-49
2022/11/02 12:38:19;;;;;;;10.50;1.95;;;16.80;99.90;;;;;;5138573;27;20031;-48
2022/11/02 12:41:06;;;;;;;8.30;1.60;;;16.60;99.90;;;;;;5134245;27;20053;-50
2022/11/02 12:43:31;;;;;;;6.65;1.50;;;16.40;99.90;;;;;;5138685;27;20115;-48
2022/11/02 12:46:27;;;;;;;7.68;1.45;;;16.60;99.90;;;;;;5138388;27;20046;-48
2022/11/02 12:48:59;;;;;;;11.85;1.90;;;16.90;99.90;;;;;;5131116;27;20385;-47
2022/11/02 12:51:45;;;;;;;8.32;1.98;;;17.20;99.90;;;;;;5143995;27;20038;-48
2022/11/02 12:54:20;;;;;;;10.10;1.55;;;17.20;99.90;;;;;;5142451;27;20114;-48
2022/11/02 12:56:51;;;;;;;11.70;2.13;;;17.30;99.90;;;;;;5142764;27;20057;-49
2022/11/02 12:59:33;;;;;;;8.73;1.60;;;17.40;99.90;;;;;;5119711;27;20118;-50
2022/11/02 13:02:09;;;;;;;8.30;1.40;;;17.30;99.90;;;;;;5143148;27;20061;-48
2022/11/02 13:05:07;;;;;;;12.48;1.75;;;17.40;99.90;;;;;;5124751;27;20051;-47
2022/11/02 13:07:47;;;;;;;8.63;1.88;;;17.30;99.90;;;;;;5095812;27;20126;-47
2022/11/02 13:10:20;;;;;;;9.65;1.85;;;17.10;99.90;;;;;;5149817;27;20483;-46
2022/11/02 13:12:50;;;;;;;11.45;1.70;;;16.60;99.90;;;;;;5139873;27;20035;-49
2022/11/02 13:15:20;;;;;;;10.20;1.73;;;16.30;99.90;;;;;;5141129;27;20035;-46
2022/11/02 13:18:12;;;;;;;9.13;1.70;;;16.30;99.90;;;;;;5130330;27;20034;-47